Time;durP1;ratioP1;P1;durP2;ratioP2;P2;SDS_P1;SDS_P2;PMS_P1;PMS_P2;Temp;Humidity;BMP_temperature;BMP_pressure;BME280_temperature;BME280_humidity;BME280_pressure;Samples;Min_cycle;Max_cycle;Signal;HPM_P1;HPM_P2
2022/01/01 00:02:11;;;;;;;;;37.25;34.00;;;;;;;;5037846;28;45302;-70
2022/01/01 00:04:36;;;;;;;;;63.00;51.50;;;;;;;;5042181;28;45453;-71
2022/01/01 00:07:01;;;;;;;;;22.00;22.00;;;;;;;;5037103;28;45841;-71
2022/01/01 00:09:27;;;;;;;;;49.50;41.75;;;;;;;;5038806;28;47116;-71
2022/01/01 00:11:52;;;;;;;;;54.50;44.00;;;;;;;;5034280;28;45488;-71
2022/01/01 00:14:18;;;;;;;;;50.00;41.50;;;;;;;;5029994;28;45461;-70
2022/01/01 00:16:43;;;;;;;;;42.00;36.50;;;;;;;;5033073;28;45517;-70
2022/01/01 00:19:08;;;;;;;;;48.75;39.75;;;;;;;;5038740;28;47343;-68
2022/01/01 00:21:34;;;;;;;;;45.75;38.75;;;;;;;;5028533;28;45533;-70
2022/01/01 00:23:59;;;;;;;;;44.25;37.75;;;;;;;;5050668;28;45487;-71
2022/01/01 00:26:24;;;;;;;;;44.50;38.00;;;;;;;;5036991;28;45434;-74
2022/01/01 00:28:50;;;;;;;;;37.75;34.75;;;;;;;;5040395;28;48426;-72
2022/01/01 00:31:15;;;;;;;;;46.75;38.75;;;;;;;;5053157;28;45389;-70
2022/01/01 00:33:40;;;;;;;;;45.50;37.25;;;;;;;;5046212;28;45475;-73
2022/01/01 00:36:06;;;;;;;;;46.50;36.25;;;;;;;;5038802;28;45950;-68
2022/01/01 00:38:31;;;;;;;;;33.75;31.50;;;;;;;;5038685;28;47789;-68
2022/01/01 00:40:56;;;;;;;;;36.25;33.25;;;;;;;;5046306;28;45752;-72
2022/01/01 00:43:24;;;;;;;;;23.75;21.75;;;;;;;;5035112;28;45547;-69
2022/01/01 00:45:49;;;;;;;;;38.25;34.00;;;;;;;;5048997;28;45797;-72
2022/01/01 00:48:14;;;;;;;;;32.00;30.50;;;;;;;;5034204;28;47861;-73
2022/01/01 00:50:39;;;;;;;;;36.00;31.25;;;;;;;;5050718;28;45514;-70
2022/01/01 00:53:05;;;;;;;;;36.75;31.25;;;;;;;;5048778;28;45557;-73
2022/01/01 00:55:30;;;;;;;;;33.25;30.00;;;;;;;;5045605;28;45362;-73
2022/01/01 00:57:55;;;;;;;;;41.50;36.25;;;;;;;;5036292;28;47558;-74
2022/01/01 01:00:20;;;;;;;;;34.75;31.50;;;;;;;;5034554;28;45755;-75
2022/01/01 01:02:46;;;;;;;;;37.50;33.25;;;;;;;;5042475;28;45437;-75
2022/01/01 01:05:11;;;;;;;;;37.00;33.25;;;;;;;;5063087;27;45488;-71
2022/01/01 01:07:36;;;;;;;;;44.00;33.00;;;;;;;;5045549;28;48415;-71
2022/01/01 01:10:04;;;;;;;;;40.75;34.25;;;;;;;;5040622;28;45426;-73
2022/01/01 01:12:39;;;;;;;;;36.00;32.25;;;;;;;;5032353;28;45580;-72
2022/01/01 01:15:05;;;;;;;;;34.75;32.00;;;;;;;;5044913;28;45502;-77
2022/01/01 01:17:30;;;;;;;;;37.75;33.00;;;;;;;;5031370;28;47504;-80
2022/01/01 01:19:55;;;;;;;;;30.75;29.50;;;;;;;;5041864;28;45409;-76
2022/01/01 01:22:21;;;;;;;;;36.00;31.50;;;;;;;;5048898;28;45402;-77
2022/01/01 01:24:46;;;;;;;;;30.75;29.50;;;;;;;;5051052;28;45318;-71
2022/01/01 01:27:11;;;;;;;;;31.50;29.50;;;;;;;;5032130;28;48524;-71
2022/01/01 01:29:41;;;;;;;;;33.75;30.00;;;;;;;;5048895;28;45418;-72
2022/01/01 01:32:07;;;;;;;;;34.25;30.50;;;;;;;;5050157;28;45397;-70
2022/01/01 01:34:32;;;;;;;;;29.25;26.00;;;;;;;;5051325;28;45548;-70
2022/01/01 01:36:57;;;;;;;;;31.25;27.50;;;;;;;;5035613;28;47192;-70
2022/01/01 01:39:22;;;;;;;;;26.50;25.25;;;;;;;;5034682;28;45402;-70
2022/01/01 01:41:49;;;;;;;;;37.00;32.00;;;;;;;;5053344;28;45657;-73
2022/01/01 01:44:25;;;;;;;;;30.25;28.75;;;;;;;;5052874;28;45525;-70
2022/01/01 01:46:50;;;;;;;;;27.50;26.00;;;;;;;;5052746;28;46624;-69
2022/01/01 01:49:19;;;;;;;;;40.50;33.75;;;;;;;;5034947;28;46166;-71
2022/01/01 01:51:44;;;;;;;;;32.25;31.50;;;;;;;;5037087;28;45347;-72
2022/01/01 01:54:10;;;;;;;;;30.50;30.50;;;;;;;;5036379;28;45720;-72
2022/01/01 01:56:35;;;;;;;;;33.00;31.50;;;;;;;;5055294;28;45850;-71
2022/01/01 01:59:01;;;;;;;;;34.00;33.00;;;;;;;;5033968;28;47830;-72
2022/01/01 02:01:27;;;;;;;;;39.00;34.50;;;;;;;;5053186;28;45551;-71
2022/01/01 02:03:56;;;;;;;;;37.50;34.00;;;;;;;;5028968;28;45486;-68
2022/01/01 02:06:21;;;;;;;;;39.25;34.25;;;;;;;;5028869;28;47642;-71
2022/01/01 02:08:49;;;;;;;;;37.50;34.25;;;;;;;;5032191;28;46727;-75
2022/01/01 02:11:15;;;;;;;;;37.75;34.75;;;;;;;;5047400;28;45560;-73
2022/01/01 02:17:17;;;;;;;;;37.25;34.75;;;;;;;;5038431;28;46031;-71
2022/01/01 02:19:27;;;;;;;;;42.75;38.00;;;;;;;;5048057;28;45644;-70
2022/01/01 02:21:53;;;;;;;;;42.25;35.50;;;;;;;;5047273;28;45455;-71
2022/01/01 02:24:19;;;;;;;;;44.25;36.00;;;;;;;;5033284;28;45422;-73
2022/01/01 02:26:44;;;;;;;;;42.50;36.50;;;;;;;;5070078;27;47536;-70
2022/01/01 02:29:10;;;;;;;;;38.75;33.00;;;;;;;;5037822;28;46137;-75
2022/01/01 02:31:35;;;;;;;;;42.50;36.00;;;;;;;;5037265;28;45489;-73
2022/01/01 02:34:07;;;;;;;;;46.75;38.50;;;;;;;;5056062;28;45442;-74
2022/01/01 02:36:37;;;;;;;;;37.00;32.50;;;;;;;;5037122;28;47608;-72
2022/01/01 02:39:29;;;;;;;;;42.75;37.50;;;;;;;;5037278;28;45524;-73
2022/01/01 02:41:56;;;;;;;;;46.25;39.50;;;;;;;;5051990;28;45606;-73
2022/01/01 02:44:22;;;;;;;;;38.25;34.50;;;;;;;;5037418;28;45538;-73
2022/01/01 02:46:47;;;;;;;;;38.00;34.25;;;;;;;;5055163;28;46486;-72
2022/01/01 02:49:12;;;;;;;;;38.50;34.00;;;;;;;;5055616;28;45358;-70
2022/01/01 02:51:38;;;;;;;;;39.50;35.25;;;;;;;;5056114;28;45448;-71
2022/01/01 02:54:03;;;;;;;;;35.25;33.25;;;;;;;;5055225;28;45888;-72
2022/01/01 02:56:28;;;;;;;;;41.00;35.50;;;;;;;;5036150;28;47630;-71
2022/01/01 02:58:53;;;;;;;;;40.25;35.75;;;;;;;;5037036;28;45316;-72
2022/01/01 03:01:19;;;;;;;;;32.75;31.25;;;;;;;;5055250;28;45309;-72
2022/01/01 03:03:44;;;;;;;;;38.25;34.00;;;;;;;;5055015;28;45464;-72
2022/01/01 03:06:10;;;;;;;;;33.25;30.00;;;;;;;;5054729;28;46750;-72
2022/01/01 03:08:35;;;;;;;;;33.50;32.25;;;;;;;;5054908;28;45570;-72
2022/01/01 03:11:03;;;;;;;;;34.00;30.00;;;;;;;;5055547;28;45579;-72
2022/01/01 03:13:31;;;;;;;;;28.00;27.25;;;;;;;;5055316;28;45568;-72
2022/01/01 03:15:57;;;;;;;;;35.75;31.75;;;;;;;;5054933;28;45551;-73
2022/01/01 03:18:22;;;;;;;;;39.50;33.25;;;;;;;;5036599;28;46228;-72
2022/01/01 03:20:47;;;;;;;;;36.50;31.00;;;;;;;;5054999;28;45527;-73
2022/01/01 03:23:12;;;;;;;;;29.00;25.00;;;;;;;;5050429;28;45460;-71
2022/01/01 03:25:37;;;;;;;;;38.25;34.25;;;;;;;;5053480;28;46338;-73
2022/01/01 03:28:03;;;;;;;;;32.25;31.75;;;;;;;;5054895;28;45586;-73
2022/01/01 03:30:28;;;;;;;;;30.75;30.00;;;;;;;;5044125;28;45500;-73
2022/01/01 03:32:54;;;;;;;;;31.75;28.25;;;;;;;;5042346;28;45481;-73
2022/01/01 03:35:19;;;;;;;;;30.50;29.25;;;;;;;;5055794;28;46308;-70
2022/01/01 03:37:44;;;;;;;;;35.00;32.50;;;;;;;;5053369;28;45467;-70
2022/01/01 03:40:10;;;;;;;;;32.25;31.75;;;;;;;;5036755;28;45906;-70
2022/01/01 03:42:35;;;;;;;;;29.75;27.75;;;;;;;;5035907;28;45543;-70
2022/01/01 03:45:00;;;;;;;;;35.50;31.25;;;;;;;;5053771;28;47137;-72
2022/01/01 03:47:25;;;;;;;;;34.75;29.00;;;;;;;;5036381;28;47687;-72
2022/01/01 03:49:50;;;;;;;;;29.25;27.25;;;;;;;;5070641;28;45508;-72
2022/01/01 03:52:16;;;;;;;;;37.25;34.50;;;;;;;;5035945;28;45398;-71
2022/01/01 03:54:41;;;;;;;;;33.50;30.00;;;;;;;;5054534;28;45544;-71
2022/01/01 03:57:06;;;;;;;;;31.25;26.50;;;;;;;;5054848;28;45405;-71
2022/01/01 03:59:32;;;;;;;;;26.25;26.25;;;;;;;;5036756;28;45489;-72
2022/01/01 04:01:57;;;;;;;;;25.50;24.25;;;;;;;;5054667;28;45295;-71
2022/01/01 04:04:25;;;;;;;;;31.50;29.25;;;;;;;;5033751;28;48596;-71
2022/01/01 04:06:50;;;;;;;;;25.75;25.75;;;;;;;;5050497;28;45500;-71
2022/01/01 04:09:15;;;;;;;;;31.50;31.50;;;;;;;;5053082;28;45481;-71
2022/01/01 04:11:40;;;;;;;;;30.25;26.50;;;;;;;;5036374;28;45583;-71
2022/01/01 04:14:06;;;;;;;;;29.50;27.50;;;;;;;;5047707;28;45719;-72
2022/01/01 04:16:31;;;;;;;;;26.00;24.75;;;;;;;;5053286;28;45865;-71
2022/01/01 04:18:56;;;;;;;;;33.00;32.50;;;;;;;;5034897;28;45555;-71
2022/01/01 04:21:22;;;;;;;;;34.00;30.50;;;;;;;;5053877;28;45397;-71
2022/01/01 04:23:47;;;;;;;;;30.25;25.00;;;;;;;;5053525;28;47295;-71
2022/01/01 04:26:12;;;;;;;;;33.50;32.00;;;;;;;;5053048;28;45442;-70
2022/01/01 04:28:37;;;;;;;;;30.00;27.50;;;;;;;;5066061;28;45589;-72
2022/01/01 04:31:03;;;;;;;;;23.50;21.75;;;;;;;;5054411;28;45436;-72
2022/01/01 04:33:29;;;;;;;;;29.50;28.75;;;;;;;;5034369;28;47223;-72
2022/01/01 04:35:54;;;;;;;;;27.75;27.75;;;;;;;;5031278;28;45838;-72
2022/01/01 04:40:53;;;;;;;;;30.00;30.00;;;;;;;;5053742;28;46135;-73
2022/01/01 04:43:20;;;;;;;;;32.25;30.00;;;;;;;;5031091;28;47452;-70
2022/01/01 04:45:45;;;;;;;;;26.75;25.00;;;;;;;;5053744;28;45349;-70
2022/01/01 04:48:10;;;;;;;;;25.75;24.25;;;;;;;;5035164;28;45448;-71
2022/01/01 04:50:35;;;;;;;;;24.75;24.25;;;;;;;;5053900;28;45551;-73
2022/01/01 04:53:01;;;;;;;;;30.25;27.00;;;;;;;;5035307;28;48124;-73
2022/01/01 04:55:26;;;;;;;;;31.50;24.75;;;;;;;;5053834;28;45417;-72
2022/01/01 04:57:51;;;;;;;;;27.25;25.00;;;;;;;;5054543;28;45302;-71
2022/01/01 05:00:16;;;;;;;;;28.50;28.50;;;;;;;;5053247;28;45525;-72
2022/01/01 05:02:42;;;;;;;;;28.25;26.50;;;;;;;;5053506;28;45338;-71
2022/01/01 05:05:07;;;;;;;;;30.00;29.00;;;;;;;;5053552;28;45472;-72
2022/01/01 05:07:32;;;;;;;;;29.00;29.00;;;;;;;;5035685;28;45491;-71
2022/01/01 05:09:59;;;;;;;;;28.00;28.00;;;;;;;;5033904;28;45515;-74
2022/01/01 05:12:24;;;;;;;;;30.50;28.00;;;;;;;;5050913;28;45660;-75
2022/01/01 05:14:49;;;;;;;;;29.25;24.75;;;;;;;;5046529;28;45560;-75
2022/01/01 05:17:15;;;;;;;;;31.50;29.50;;;;;;;;5053437;28;45511;-73
2022/01/01 05:19:40;;;;;;;;;30.25;29.50;;;;;;;;5053125;28;45341;-73
2022/01/01 05:22:05;;;;;;;;;36.75;29.75;;;;;;;;5034954;28;49995;-74
2022/01/01 05:24:30;;;;;;;;;36.25;33.25;;;;;;;;5034879;28;45492;-72
2022/01/01 05:26:56;;;;;;;;;27.75;25.00;;;;;;;;5053217;28;45798;-75
2022/01/01 05:29:21;;;;;;;;;32.25;30.00;;;;;;;;5050097;28;45522;-74
2022/01/01 05:31:46;;;;;;;;;33.50;29.50;;;;;;;;5044329;28;46086;-73
2022/01/01 05:34:11;;;;;;;;;36.50;34.25;;;;;;;;5052575;28;45454;-75
2022/01/01 05:36:37;;;;;;;;;36.00;33.50;;;;;;;;5053167;28;45477;-76
2022/01/01 05:39:02;;;;;;;;;27.25;27.25;;;;;;;;5034203;28;45491;-74
2022/01/01 05:41:27;;;;;;;;;25.25;24.25;;;;;;;;5033999;28;48474;-73
2022/01/01 05:43:52;;;;;;;;;26.75;26.00;;;;;;;;5067913;28;45449;-74
2022/01/01 05:46:18;;;;;;;;;22.75;21.25;;;;;;;;5053186;28;45346;-75
2022/01/01 05:48:43;;;;;;;;;29.25;25.50;;;;;;;;5035540;28;45502;-74
2022/01/01 05:51:08;;;;;;;;;27.00;24.75;;;;;;;;5035262;28;47498;-75
2022/01/01 05:53:34;;;;;;;;;27.25;26.25;;;;;;;;5042347;28;45484;-75
2022/01/01 05:55:59;;;;;;;;;25.25;24.25;;;;;;;;5045647;28;45288;-74
2022/01/01 05:58:24;;;;;;;;;28.25;24.50;;;;;;;;5048052;28;45625;-75
2022/01/01 06:00:49;;;;;;;;;23.75;21.75;;;;;;;;5055555;28;45541;-74
2022/01/01 06:03:15;;;;;;;;;23.75;20.75;;;;;;;;5042759;28;45463;-75
2022/01/01 06:05:40;;;;;;;;;24.00;24.00;;;;;;;;5042319;28;45513;-76
2022/01/01 06:08:06;;;;;;;;;25.00;21.00;;;;;;;;5062587;28;45479;-77
2022/01/01 06:10:31;;;;;;;;;16.50;15.50;;;;;;;;5039842;28;47563;-72
2022/01/01 06:12:56;;;;;;;;;26.00;22.75;;;;;;;;5038007;28;45306;-72
2022/01/01 06:15:22;;;;;;;;;27.00;25.00;;;;;;;;5055867;28;46250;-72
2022/01/01 06:17:47;;;;;;;;;19.25;19.25;;;;;;;;5055445;28;45337;-72
2022/01/01 06:20:13;;;;;;;;;24.50;24.50;;;;;;;;5037501;28;48856;-71
2022/01/01 06:22:38;;;;;;;;;28.00;23.00;;;;;;;;5055409;28;45282;-72
2022/01/01 06:25:04;;;;;;;;;25.50;22.50;;;;;;;;5038267;28;45429;-71
2022/01/01 06:27:30;;;;;;;;;23.25;22.75;;;;;;;;5037372;28;45722;-73
2022/01/01 06:29:56;;;;;;;;;32.00;25.75;;;;;;;;5055083;28;48128;-71
2022/01/01 06:32:22;;;;;;;;;23.50;23.50;;;;;;;;5055226;28;45632;-71
2022/01/01 06:34:47;;;;;;;;;22.75;21.50;;;;;;;;5055279;28;45895;-72
2022/01/01 06:37:12;;;;;;;;;23.00;19.75;;;;;;;;5038157;28;45379;-71
2022/01/01 06:39:37;;;;;;;;;28.50;23.50;;;;;;;;5055427;28;45667;-71
2022/01/01 06:42:03;;;;;;;;;21.25;19.50;;;;;;;;5055469;28;45817;-72
2022/01/01 06:44:28;;;;;;;;;19.00;19.00;;;;;;;;5037084;28;45587;-71
2022/01/01 06:46:53;;;;;;;;;24.75;23.00;;;;;;;;5036766;28;45482;-72
2022/01/01 06:49:19;;;;;;;;;21.25;20.50;;;;;;;;5037592;28;47769;-72
2022/01/01 06:51:44;;;;;;;;;22.75;21.00;;;;;;;;5038005;28;45650;-73
2022/01/01 06:54:09;;;;;;;;;20.00;20.00;;;;;;;;5055597;28;45428;-73
2022/01/01 06:56:35;;;;;;;;;16.25;16.25;;;;;;;;5037634;28;45419;-73
2022/01/01 06:59:00;;;;;;;;;24.00;23.00;;;;;;;;5054798;28;45473;-73
2022/01/01 07:01:25;;;;;;;;;26.50;22.50;;;;;;;;5037356;28;45517;-74
2022/01/01 07:03:51;;;;;;;;;18.00;18.00;;;;;;;;5037343;28;45457;-73
2022/01/01 07:06:16;;;;;;;;;26.50;21.50;;;;;;;;5055492;28;45555;-73
2022/01/01 07:08:41;;;;;;;;;23.50;22.25;;;;;;;;5037348;28;48694;-73
2022/01/01 07:11:06;;;;;;;;;23.00;20.75;;;;;;;;5036795;28;45394;-71
2022/01/01 07:13:32;;;;;;;;;17.25;13.50;;;;;;;;5037451;28;45736;-72
2022/01/01 07:15:57;;;;;;;;;25.50;21.25;;;;;;;;5056258;28;45607;-72
2022/01/01 07:18:22;;;;;;;;;20.25;19.00;;;;;;;;5037189;28;48622;-71
2022/01/01 07:20:47;;;;;;;;;26.75;22.00;;;;;;;;5037269;28;46045;-71
2022/01/01 07:23:13;;;;;;;;;25.50;25.50;;;;;;;;5033961;28;46030;-71
2022/01/01 07:25:38;;;;;;;;;25.50;23.75;;;;;;;;5051174;28;45421;-74
2022/01/01 07:28:04;;;;;;;;;25.75;23.50;;;;;;;;5034077;28;47138;-72
2022/01/01 07:30:29;;;;;;;;;29.25;22.50;;;;;;;;5033457;28;45418;-72
2022/01/01 07:32:54;;;;;;;;;25.25;25.25;;;;;;;;5034152;28;45517;-74
2022/01/01 07:35:20;;;;;;;;;22.00;21.00;;;;;;;;5033311;28;45443;-73
2022/01/01 07:37:46;;;;;;;;;24.75;24.75;;;;;;;;5033554;28;48532;-73
2022/01/01 07:40:12;;;;;;;;;25.25;23.75;;;;;;;;5035490;28;45445;-73
2022/01/01 07:42:37;;;;;;;;;29.50;26.75;;;;;;;;5033694;28;45498;-73
2022/01/01 07:45:03;;;;;;;;;22.75;21.50;;;;;;;;5034719;28;45982;-74
2022/01/01 07:47:28;;;;;;;;;25.00;23.50;;;;;;;;5034558;28;47791;-73
2022/01/01 07:49:53;;;;;;;;;26.50;26.25;;;;;;;;5034512;28;45458;-74
2022/01/01 07:52:19;;;;;;;;;29.25;27.75;;;;;;;;5033666;28;45314;-74
2022/01/01 07:54:44;;;;;;;;;27.75;27.00;;;;;;;;5035273;28;45442;-75
2022/01/01 07:57:09;;;;;;;;;33.75;31.50;;;;;;;;5034729;28;45754;-73
2022/01/01 07:59:34;;;;;;;;;22.75;22.00;;;;;;;;5034343;28;45532;-74
2022/01/01 08:01:59;;;;;;;;;24.00;22.50;;;;;;;;5034592;28;45421;-74
2022/01/01 08:04:25;;;;;;;;;25.25;22.25;;;;;;;;5033663;28;45351;-73
2022/01/01 08:06:50;;;;;;;;;25.50;23.50;;;;;;;;5032791;28;45436;-74
2022/01/01 08:09:16;;;;;;;;;25.25;20.75;;;;;;;;5034221;28;45497;-72
2022/01/01 08:11:41;;;;;;;;;27.50;25.75;;;;;;;;5034119;28;45491;-73
2022/01/01 08:14:07;;;;;;;;;26.50;23.50;;;;;;;;5033572;28;45360;-70
2022/01/01 08:16:32;;;;;;;;;23.50;21.50;;;;;;;;5035010;28;47873;-70
2022/01/01 08:18:57;;;;;;;;;26.50;24.00;;;;;;;;5039452;28;45409;-73
2022/01/01 08:21:22;;;;;;;;;28.00;23.50;;;;;;;;5040227;28;45384;-72
2022/01/01 08:23:48;;;;;;;;;23.75;22.50;;;;;;;;5053359;28;45339;-71
2022/01/01 08:26:13;;;;;;;;;22.75;21.50;;;;;;;;5036352;28;47927;-72
2022/01/01 08:28:38;;;;;;;;;17.25;15.25;;;;;;;;5029689;28;45544;-74
2022/01/01 08:31:04;;;;;;;;;23.75;21.75;;;;;;;;5054755;28;45410;-72
2022/01/01 08:33:29;;;;;;;;;23.75;22.75;;;;;;;;5036102;28;45438;-71
2022/01/01 08:35:55;;;;;;;;;21.50;21.50;;;;;;;;5035454;28;47752;-71
2022/01/01 08:38:20;;;;;;;;;23.25;21.50;;;;;;;;5054439;28;45357;-71
2022/01/01 08:40:45;;;;;;;;;23.50;22.00;;;;;;;;5054620;28;49133;-70
2022/01/01 08:43:10;;;;;;;;;25.25;22.50;;;;;;;;5054323;28;45312;-69
2022/01/01 08:45:37;;;;;;;;;19.75;18.50;;;;;;;;5035419;28;48067;-71
2022/01/01 08:48:02;;;;;;;;;19.75;19.50;;;;;;;;5053917;28;45872;-73
2022/01/01 08:50:28;;;;;;;;;23.00;21.25;;;;;;;;5053833;28;45618;-68
2022/01/01 08:52:53;;;;;;;;;22.25;20.25;;;;;;;;5053955;28;45482;-71
2022/01/01 08:55:18;;;;;;;;;23.50;21.50;;;;;;;;5053150;28;46650;-73
2022/01/01 08:57:43;;;;;;;;;26.75;25.00;;;;;;;;5036208;28;46033;-72
2022/01/01 09:00:10;;;;;;;;;28.75;24.75;;;;;;;;5054051;28;45557;-72
2022/01/01 09:02:36;;;;;;;;;24.00;21.50;;;;;;;;5053719;28;45507;-70
2022/01/01 09:05:01;;;;;;;;;19.75;19.25;;;;;;;;5053632;28;46382;-72
2022/01/01 09:07:30;;;;;;;;;18.75;18.75;;;;;;;;5035498;28;45520;-69
2022/01/01 09:09:56;;;;;;;;;21.75;17.00;;;;;;;;5053426;28;45474;-72
2022/01/01 09:12:21;;;;;;;;;23.50;18.25;;;;;;;;5034820;28;45457;-71
2022/01/01 09:14:46;;;;;;;;;20.50;19.25;;;;;;;;5052131;28;45457;-70
2022/01/01 09:17:11;;;;;;;;;20.50;19.00;;;;;;;;5052111;28;46952;-73
2022/01/01 09:19:36;;;;;;;;;18.75;18.75;;;;;;;;5035081;28;45632;-72
2022/01/01 09:22:02;;;;;;;;;16.00;16.00;;;;;;;;5053315;28;45467;-71
2022/01/01 09:24:27;;;;;;;;;15.75;13.25;;;;;;;;5051957;28;46238;-75
2022/01/01 09:26:52;;;;;;;;;19.50;17.00;;;;;;;;5034465;28;45534;-75
2022/01/01 09:29:18;;;;;;;;;14.50;14.50;;;;;;;;5053433;28;45973;-75
2022/01/01 09:31:44;;;;;;;;;16.50;16.25;;;;;;;;5053368;28;45446;-75
2022/01/01 09:34:10;;;;;;;;;17.00;15.75;;;;;;;;5054237;28;46200;-76
2022/01/01 09:36:35;;;;;;;;;17.75;14.50;;;;;;;;5038018;28;45430;-77
2022/01/01 09:39:03;;;;;;;;;13.25;13.25;;;;;;;;5038693;28;45306;-75
2022/01/01 09:41:28;;;;;;;;;17.50;16.50;;;;;;;;5056557;28;45434;-75
2022/01/01 09:43:54;;;;;;;;;16.75;16.75;;;;;;;;5072556;28;46345;-75
2022/01/01 09:46:19;;;;;;;;;15.75;14.50;;;;;;;;5056714;28;45631;-76
2022/01/01 09:48:44;;;;;;;;;12.75;12.75;;;;;;;;5038524;28;45236;-72
2022/01/01 09:51:10;;;;;;;;;18.50;16.50;;;;;;;;5055945;28;45523;-74
2022/01/01 09:53:35;;;;;;;;;16.00;16.00;;;;;;;;5056149;28;46336;-78
2022/01/01 09:56:01;;;;;;;;;13.50;13.50;;;;;;;;5021905;28;45465;-77
2022/01/01 09:58:28;;;;;;;;;14.25;14.25;;;;;;;;5038583;28;45438;-78
2022/01/01 10:00:53;;;;;;;;;13.50;10.75;;;;;;;;5038826;28;45640;-78
2022/01/01 10:03:28;;;;;;;;;14.67;14.67;;;;;;;;5055699;28;45803;-76
2022/01/01 10:06:00;;;;;;;;;15.33;15.33;;;;;;;;5037558;28;46213;-76
2022/01/01 10:08:25;;;;;;;;;11.67;10.67;;;;;;;;5038176;28;45540;-77
2022/01/01 10:10:52;;;;;;;;;15.25;12.00;;;;;;;;5055817;28;49305;-76
2022/01/01 10:13:17;;;;;;;;;16.00;14.33;;;;;;;;5037791;28;48785;-77
2022/01/01 10:15:42;;;;;;;;;12.33;12.00;;;;;;;;5056004;28;45400;-77
2022/01/01 10:18:08;;;;;;;;;12.00;12.00;;;;;;;;5055312;28;45551;-74
2022/01/01 10:20:36;;;;;;;;;13.00;11.67;;;;;;;;5036417;28;45571;-76
2022/01/01 10:23:12;;;;;;;;;12.67;12.67;;;;;;;;5037816;28;46219;-76
2022/01/01 10:28:21;;;;;;;;;9.67;9.67;;;;;;;;5052815;28;45373;-76
2022/01/01 10:30:48;;;;;;;;;12.00;12.00;;;;;;;;5038223;28;45525;-76
2022/01/01 10:33:15;;;;;;;;;14.00;11.50;;;;;;;;5037539;28;48262;-76
2022/01/01 10:35:40;;;;;;;;;14.75;12.75;;;;;;;;5036650;28;46623;-75
2022/01/01 10:38:06;;;;;;;;;13.25;13.25;;;;;;;;5055720;28;45392;-77
2022/01/01 10:40:31;;;;;;;;;11.67;11.33;;;;;;;;5036565;28;47196;-74
2022/01/01 10:42:57;;;;;;;;;11.50;9.50;;;;;;;;5038334;28;48273;-77
2022/01/01 10:45:33;;;;;;;;;13.50;12.25;;;;;;;;5040317;28;47237;-76
2022/01/01 10:48:04;;;;;;;;;14.25;12.25;;;;;;;;5049500;28;45487;-75
2022/01/01 10:50:34;;;;;;;;;11.75;10.75;;;;;;;;5036824;28;45406;-72
2022/01/01 10:53:11;;;;;;;;;16.25;15.00;;;;;;;;5036440;28;47578;-69
2022/01/01 10:55:39;;;;;;;;;11.25;11.25;;;;;;;;5054721;28;45350;-67
2022/01/01 10:58:04;;;;;;;;;14.75;13.75;;;;;;;;5055331;28;45372;-70
2022/01/01 11:00:30;;;;;;;;;12.00;10.75;;;;;;;;5033290;28;45527;-75
2022/01/01 11:02:56;;;;;;;;;11.25;11.25;;;;;;;;5032331;28;47273;-68
2022/01/01 11:05:26;;;;;;;;;14.75;13.50;;;;;;;;5027719;28;45531;-73
2022/01/01 11:07:52;;;;;;;;;11.25;8.75;;;;;;;;5059700;28;45486;-74
2022/01/01 11:10:18;;;;;;;;;11.75;11.75;;;;;;;;5035898;28;45625;-74
2022/01/01 11:12:43;;;;;;;;;13.00;10.00;;;;;;;;5034519;28;48059;-73
2022/01/01 11:15:10;;;;;;;;;12.75;12.75;;;;;;;;5054841;28;45452;-69
2022/01/01 11:17:36;;;;;;;;;13.75;13.25;;;;;;;;5032256;28;45618;-76
2022/01/01 11:20:02;;;;;;;;;13.25;13.25;;;;;;;;5046447;28;46056;-71
2022/01/01 11:22:28;;;;;;;;;12.00;12.00;;;;;;;;5029987;28;48526;-77
2022/01/01 11:24:54;;;;;;;;;15.75;13.50;;;;;;;;5046765;28;45449;-74
2022/01/01 11:27:19;;;;;;;;;12.50;12.50;;;;;;;;5035320;28;45427;-71
2022/01/01 11:29:50;;;;;;;;;13.50;12.25;;;;;;;;5035143;28;45493;-73
2022/01/01 11:32:16;;;;;;;;;11.00;11.00;;;;;;;;5038616;28;48599;-70
2022/01/01 11:34:44;;;;;;;;;13.00;11.75;;;;;;;;5033408;28;45529;-73
2022/01/01 11:37:12;;;;;;;;;11.00;10.50;;;;;;;;5035181;28;45380;-70
2022/01/01 11:39:37;;;;;;;;;9.67;9.00;;;;;;;;5047017;28;45406;-75
2022/01/01 11:42:21;;;;;;;;;10.00;10.00;;;;;;;;5025425;28;47027;-70
2022/01/01 11:44:50;;;;;;;;;15.75;15.75;;;;;;;;5036744;28;46176;-76
2022/01/01 11:47:22;;;;;;;;;11.50;10.50;;;;;;;;5045020;28;45477;-74
2022/01/01 11:49:48;;;;;;;;;10.25;10.25;;;;;;;;5048273;28;45543;-71
2022/01/01 11:52:33;;;;;;;;;11.75;11.75;;;;;;;;5044894;28;47594;-71
2022/01/01 11:54:59;;;;;;;;;13.25;13.25;;;;;;;;5040629;28;46146;-70
2022/01/01 11:57:26;;;;;;;;;11.67;11.67;;;;;;;;5047682;28;45564;-72
2022/01/01 11:59:52;;;;;;;;;12.25;12.25;;;;;;;;5050497;28;45525;-71
2022/01/01 12:02:20;;;;;;;;;11.50;11.00;;;;;;;;5048515;28;45856;-69
2022/01/01 12:04:46;;;;;;;;;9.33;9.00;;;;;;;;5048399;28;45486;-70
2022/01/01 12:07:28;;;;;;;;;14.00;12.00;;;;;;;;5037735;28;45445;-75
2022/01/01 12:10:08;;;;;;;;;14.00;14.00;;;;;;;;5048219;28;45456;-73
2022/01/01 12:12:39;;;;;;;;;8.33;8.33;;;;;;;;5043279;28;46468;-70
2022/01/01 12:15:06;;;;;;;;;10.33;10.33;;;;;;;;5042655;28;45514;-75
2022/01/01 12:18:03;;;;;;;;;10.00;10.00;;;;;;;;5036711;28;45669;-75
2022/01/01 12:20:46;;;;;;;;;8.67;8.67;;;;;;;;4970021;28;45464;-76
2022/01/01 12:23:13;;;;;;;;;10.67;10.00;;;;;;;;4990387;28;45391;-76
2022/01/01 12:25:39;;;;;;;;;12.00;12.00;;;;;;;;4987187;28;45567;-73
2022/01/01 12:28:08;;;;;;;;;9.67;9.00;;;;;;;;4970564;28;45990;-75
2022/01/01 12:30:37;;;;;;;;;10.33;10.33;;;;;;;;4987177;28;45521;-72
2022/01/01 12:33:03;;;;;;;;;9.00;9.00;;;;;;;;4986177;28;46136;-75
2022/01/01 12:35:40;;;;;;;;;9.67;8.67;;;;;;;;4973156;28;46100;-75
2022/01/01 12:38:07;;;;;;;;;9.33;9.33;;;;;;;;4988744;28;45405;-76
2022/01/01 12:40:32;;;;;;;;;11.33;10.33;;;;;;;;4987954;28;46448;-76
2022/01/01 12:43:06;;;;;;;;;13.00;11.33;;;;;;;;4984699;28;46399;-77
2022/01/01 12:45:32;;;;;;;;;10.00;8.67;;;;;;;;4988496;28;45514;-74
2022/01/01 12:47:59;;;;;;;;;7.33;6.33;;;;;;;;4971842;28;47358;-76
2022/01/01 12:50:24;;;;;;;;;11.67;11.00;;;;;;;;4988961;28;45387;-76
2022/01/01 12:52:53;;;;;;;;;11.00;9.75;;;;;;;;4971475;28;47734;-74
2022/01/01 12:55:22;;;;;;;;;8.67;7.33;;;;;;;;5001497;28;45355;-75
2022/01/01 12:57:48;;;;;;;;;9.67;8.67;;;;;;;;5057585;28;45422;-79
2022/01/01 13:00:21;;;;;;;;;8.67;8.67;;;;;;;;5057270;28;45382;-78
2022/01/01 13:02:46;;;;;;;;;9.00;6.67;;;;;;;;5059851;28;45673;-78
2022/01/01 13:05:15;;;;;;;;;8.67;8.67;;;;;;;;5047574;28;46477;-79
2022/01/01 13:07:40;;;;;;;;;11.67;10.00;;;;;;;;5056649;28;45423;-78
2022/01/01 13:10:05;;;;;;;;;9.33;9.33;;;;;;;;5057575;28;45686;-80
2022/01/01 13:12:31;;;;;;;;;12.00;9.33;;;;;;;;5063557;27;48373;-78
2022/01/01 13:14:56;;;;;;;;;10.00;10.00;;;;;;;;5045357;28;45531;-76
2022/01/01 13:17:23;;;;;;;;;8.33;8.33;;;;;;;;5055256;28;45343;-79
2022/01/01 13:19:52;;;;;;;;;6.67;4.67;;;;;;;;5042972;28;45501;-76
2022/01/01 13:22:27;;;;;;;;;9.33;8.00;;;;;;;;5032232;28;45551;-78
2022/01/01 13:24:53;;;;;;;;;10.33;10.33;;;;;;;;5052710;28;45675;-76
2022/01/01 13:27:18;;;;;;;;;10.00;8.67;;;;;;;;5049709;28;45532;-76
2022/01/01 13:29:43;;;;;;;;;8.67;8.67;;;;;;;;5067362;27;45422;-75
2022/01/01 13:32:09;;;;;;;;;8.00;8.00;;;;;;;;5050436;28;45637;-75
2022/01/01 13:34:35;;;;;;;;;8.00;6.67;;;;;;;;5052082;28;45303;-76
2022/01/01 13:37:04;;;;;;;;;9.00;9.00;;;;;;;;5050096;28;45544;-71
2022/01/01 13:39:29;;;;;;;;;10.67;9.67;;;;;;;;5052481;28;45461;-74
2022/01/01 13:41:55;;;;;;;;;11.33;9.00;;;;;;;;5050034;28;45820;-76
2022/01/01 13:44:25;;;;;;;;;9.00;7.33;;;;;;;;5030387;28;46069;-76
2022/01/01 13:46:59;;;;;;;;;10.67;9.67;;;;;;;;5032193;28;45567;-77
2022/01/01 13:49:25;;;;;;;;;10.67;10.67;;;;;;;;5052313;28;45540;-75
2022/01/01 13:51:54;;;;;;;;;12.33;11.33;;;;;;;;5037438;28;48061;-77
2022/01/01 13:54:22;;;;;;;;;11.67;10.33;;;;;;;;5051284;28;45556;-75
2022/01/01 13:56:50;;;;;;;;;10.33;10.33;;;;;;;;5067934;27;45741;-75
2022/01/01 13:59:15;;;;;;;;;10.67;10.00;;;;;;;;5035431;28;45810;-76
2022/01/01 14:01:43;;;;;;;;;32.75;30.00;;;;;;;;5046664;28;45624;-74
2022/01/01 14:04:10;;;;;;;;;141.33;133.33;;;;;;;;5049713;28;45565;-73
2022/01/01 14:06:35;;;;;;;;;38.25;35.50;;;;;;;;5050109;28;45513;-74
2022/01/01 14:09:03;;;;;;;;;32.25;30.00;;;;;;;;5053775;28;45370;-74
2022/01/01 14:11:30;;;;;;;;;20.00;17.75;;;;;;;;5051926;28;46019;-74
2022/01/01 14:14:05;;;;;;;;;36.50;32.50;;;;;;;;5030854;28;46421;-75
2022/01/01 14:16:32;;;;;;;;;20.50;20.50;;;;;;;;5055670;28;46794;-74
2022/01/01 14:18:57;;;;;;;;;12.00;10.33;;;;;;;;5034028;28;45377;-73
2022/01/01 14:21:24;;;;;;;;;15.75;15.75;;;;;;;;5051268;28;46375;-73
2022/01/01 14:23:52;;;;;;;;;14.00;14.00;;;;;;;;5057878;28;45805;-73